Terminal Aerodrome Forecast
Issued by NWS Tallahassee, FL

Home | Current Version | Previous Version | Text Only | Print | Product List | Glossary On
Versions: 1 2 3 4 5 6 7 8 9 10 11 12
000
FTUS42 KTAE 290500
TAFTLH
TAF
KTLH 290520Z 2906/3006 00000KT P6SM BKN250
     FM291600 16007KT P6SM SHRA BKN040
      TEMPO 2918/2922 3SM TSRA BKN040CB
     FM292300 VRB03KT P6SM FEW030 BKN250=

USA.gov is the U.S. government's official web portal to all federal, state and local government web resources and services.